createdAt,value
2018-12-17T00:00:15.794Z,1011.08
2018-12-17T00:01:15.776Z,1011.01
2018-12-17T00:02:15.779Z,1011.05
2018-12-17T00:03:15.751Z,1011.00
2018-12-17T00:04:15.766Z,1011.05
2018-12-17T00:05:15.739Z,1011.06
2018-12-17T00:06:15.733Z,1011.06
2018-12-17T00:07:15.709Z,1011.10
2018-12-17T00:08:15.703Z,1011.05
2018-12-17T00:09:15.708Z,1011.08
2018-12-17T00:10:15.687Z,1011.03
2018-12-17T00:11:15.667Z,1011.08
2018-12-17T00:12:16.603Z,1011.07
2018-12-17T00:13:15.648Z,1011.04
2018-12-17T00:14:15.646Z,1011.02
2018-12-17T00:15:15.632Z,1011.05
2018-12-17T00:16:15.614Z,1011.02
2018-12-17T00:17:15.614Z,1011.04
2018-12-17T00:18:15.600Z,1011.01
2018-12-17T00:19:15.596Z,1011.04
2018-12-17T00:20:15.574Z,1011.01
2018-12-17T00:21:15.564Z,1011.02
2018-12-17T00:22:15.553Z,1011.05
2018-12-17T00:23:15.547Z,1011.02
2018-12-17T00:24:15.545Z,1011.07
2018-12-17T00:25:15.531Z,1011.03
2018-12-17T00:26:15.511Z,1011.11
2018-12-17T00:27:15.503Z,1011.09
2018-12-17T00:28:15.496Z,1011.11
2018-12-17T00:29:15.493Z,1011.08
2018-12-17T00:30:15.471Z,1011.08
2018-12-17T00:31:15.460Z,1011.09
2018-12-17T00:32:15.452Z,1011.07
2018-12-17T00:33:15.447Z,1011.14
2018-12-17T00:34:15.444Z,1011.12
2018-12-17T00:35:15.422Z,1011.12
2018-12-17T00:36:15.408Z,1011.14
2018-12-17T00:37:15.405Z,1011.15
2018-12-17T00:38:15.416Z,1011.14
2018-12-17T00:39:15.629Z,1011.12
2018-12-17T00:40:15.365Z,1011.09
2018-12-17T00:41:15.357Z,1011.14
2018-12-17T00:42:15.374Z,1011.11
2018-12-17T00:43:15.338Z,1011.14
2018-12-17T00:44:15.338Z,1011.12
2018-12-17T00:45:15.325Z,1011.14
2018-12-17T00:46:15.304Z,1011.14
2018-12-17T00:47:15.304Z,1011.16
2018-12-17T00:48:15.291Z,1011.20
2018-12-17T00:49:15.575Z,1011.15
2018-12-17T00:50:15.268Z,1011.19
2018-12-17T00:51:15.261Z,1011.20
2018-12-17T00:52:15.249Z,1011.22
2018-12-17T00:53:15.231Z,1011.22
2018-12-17T00:54:15.219Z,1011.20
2018-12-17T00:55:15.229Z,1011.21
2018-12-17T00:56:15.200Z,1011.20
2018-12-17T00:57:15.189Z,1011.24
2018-12-17T00:58:15.398Z,1011.23
2018-12-17T00:59:15.169Z,1011.27
2018-12-17T01:00:15.171Z,1011.25
2018-12-17T01:01:15.152Z,1011.24
2018-12-17T01:02:15.138Z,1011.26
2018-12-17T01:03:15.126Z,1011.30
2018-12-17T01:04:15.114Z,1011.28
2018-12-17T01:05:15.133Z,1011.28
2018-12-17T01:06:15.098Z,1011.30
2018-12-17T01:07:15.085Z,1011.26
2018-12-17T01:08:15.073Z,1011.29
2018-12-17T01:09:15.064Z,1011.26
2018-12-17T01:10:15.063Z,1011.27
2018-12-17T01:11:15.043Z,1011.32
2018-12-17T01:12:15.031Z,1011.41
2018-12-17T01:13:15.023Z,1011.38
2018-12-17T01:14:15.011Z,1011.42
2018-12-17T01:15:15.013Z,1011.42
2018-12-17T01:16:14.990Z,1011.48
2018-12-17T01:17:14.979Z,1011.54
2018-12-17T01:18:14.973Z,1011.52
2018-12-17T01:19:14.961Z,1011.52
2018-12-17T01:20:14.960Z,1011.49
2018-12-17T01:21:14.939Z,1011.43
2018-12-17T01:22:14.937Z,1011.42
2018-12-17T01:23:14.919Z,1011.47
2018-12-17T01:24:14.906Z,1011.46
2018-12-17T01:25:15.134Z,1011.45
2018-12-17T01:26:14.885Z,1011.41
2018-12-17T01:27:14.888Z,1011.41
2018-12-17T01:28:14.864Z,1011.40
2018-12-17T01:29:14.855Z,1011.46
2018-12-17T01:30:15.128Z,1011.43
2018-12-17T01:31:14.833Z,1011.40
2018-12-17T01:32:14.828Z,1011.42
2018-12-17T01:33:14.818Z,1011.43
2018-12-17T01:34:14.801Z,1011.44
2018-12-17T01:35:14.804Z,1011.50
2018-12-17T01:36:14.780Z,1011.47
2018-12-17T01:37:14.778Z,1011.51
2018-12-17T01:38:14.760Z,1011.46
2018-12-17T01:39:14.754Z,1011.53
2018-12-17T01:40:14.752Z,1011.42
2018-12-17T01:41:14.733Z,1011.53
2018-12-17T01:42:14.721Z,1011.51
2018-12-17T01:43:14.713Z,1011.51
2018-12-17T01:44:14.705Z,1011.52
2018-12-17T01:45:14.738Z,1011.48
2018-12-17T01:46:14.676Z,1011.45
2018-12-17T01:47:14.668Z,1011.47
2018-12-17T01:48:14.656Z,1011.45
2018-12-17T01:49:14.645Z,1011.51
2018-12-17T01:50:14.643Z,1011.53
2018-12-17T01:51:14.624Z,1011.57
2018-12-17T01:52:14.613Z,1011.58
2018-12-17T01:53:14.601Z,1011.55
2018-12-17T01:54:14.594Z,1011.54
2018-12-17T01:55:14.596Z,1011.48
2018-12-17T01:56:14.571Z,1011.48
2018-12-17T01:57:14.562Z,1011.43
2018-12-17T01:58:14.551Z,1011.41
2018-12-17T01:59:14.541Z,1011.48
2018-12-17T02:00:14.544Z,1011.43
2018-12-17T02:01:14.519Z,1011.45
2018-12-17T02:02:14.510Z,1011.44
2018-12-17T02:03:14.498Z,1011.49
2018-12-17T02:04:14.487Z,1011.47
2018-12-17T02:05:14.506Z,1011.46
2018-12-17T02:06:14.466Z,1011.53
2018-12-17T02:07:15.257Z,1011.51
2018-12-17T02:08:14.451Z,1011.52
2018-12-17T02:09:14.436Z,1011.57
2018-12-17T02:10:14.425Z,1011.60
2018-12-17T02:11:14.425Z,1011.54
2018-12-17T02:12:14.417Z,1011.53
2018-12-17T02:13:14.398Z,1011.42
2018-12-17T02:14:14.387Z,1011.45
2018-12-17T02:15:14.377Z,1011.52
2018-12-17T02:16:14.380Z,1011.52
2018-12-17T02:17:14.351Z,1011.54
2018-12-17T02:18:14.351Z,1011.59
2018-12-17T02:19:14.334Z,1011.60
2018-12-17T02:20:14.321Z,1011.62
2018-12-17T02:21:14.324Z,1011.60
2018-12-17T02:22:14.299Z,1011.67
2018-12-17T02:23:14.289Z,1011.71
2018-12-17T02:24:14.282Z,1011.72
2018-12-17T02:25:14.269Z,1011.73
2018-12-17T02:26:14.270Z,1011.70
2018-12-17T02:27:14.246Z,1011.73
2018-12-17T02:28:14.237Z,1011.68
2018-12-17T02:29:14.228Z,1011.68
2018-12-17T02:30:14.218Z,1011.72
2018-12-17T02:31:14.217Z,1011.70
2018-12-17T02:32:14.195Z,1011.76
2018-12-17T02:33:15.127Z,1011.78
2018-12-17T02:34:14.174Z,1011.80
2018-12-17T02:35:14.164Z,1011.78
2018-12-17T02:36:14.173Z,1011.83
2018-12-17T02:37:14.146Z,1011.78
2018-12-17T02:38:14.131Z,1011.78
2018-12-17T02:39:14.122Z,1011.82
2018-12-17T02:40:14.111Z,1011.80
2018-12-17T02:41:14.114Z,1011.80
2018-12-17T02:42:14.163Z,1011.82
2018-12-17T02:43:14.080Z,1011.80
2018-12-17T02:44:14.069Z,1011.79
2018-12-17T02:45:14.066Z,1011.79
2018-12-17T02:46:14.108Z,1011.78
2018-12-17T02:47:14.046Z,1011.81
2018-12-17T02:48:14.025Z,1011.76
2018-12-17T02:49:14.027Z,1011.81
2018-12-17T02:50:14.006Z,1011.83
2018-12-17T02:51:14.007Z,1011.86
2018-12-17T02:52:13.989Z,1011.88
2018-12-17T02:53:13.975Z,1011.88
2018-12-17T02:54:13.965Z,1011.84
2018-12-17T02:55:13.956Z,1011.86
2018-12-17T02:56:13.956Z,1011.87
2018-12-17T02:57:13.933Z,1011.87
2018-12-17T02:58:13.944Z,1011.86
2018-12-17T02:59:13.913Z,1011.87
2018-12-17T03:00:13.901Z,1011.88
2018-12-17T03:01:13.907Z,1011.90
2018-12-17T03:02:13.879Z,1011.94
2018-12-17T03:03:13.872Z,1011.94
2018-12-17T03:04:13.858Z,1011.92
2018-12-17T03:05:13.850Z,1011.91
2018-12-17T03:06:13.851Z,1011.88
2018-12-17T03:07:13.828Z,1011.94
2018-12-17T03:08:13.819Z,1011.94
2018-12-17T03:09:13.809Z,1011.99
2018-12-17T03:10:13.807Z,1011.94
2018-12-17T03:11:13.803Z,1011.97
2018-12-17T03:12:13.778Z,1012.00
2018-12-17T03:13:13.767Z,1012.02
2018-12-17T03:14:13.766Z,1012.02
2018-12-17T03:15:13.761Z,1012.03
2018-12-17T03:16:13.763Z,1012.00
2018-12-17T03:17:13.725Z,1012.01
2018-12-17T03:18:13.713Z,1012.03
2018-12-17T03:19:13.703Z,1012.00
2018-12-17T03:20:13.695Z,1012.01
2018-12-17T03:21:13.744Z,1012.06
2018-12-17T03:22:13.673Z,1012.03
2018-12-17T03:23:13.659Z,1012.03
2018-12-17T03:24:13.659Z,1012.09
2018-12-17T03:25:13.642Z,1012.06
2018-12-17T03:26:13.653Z,1011.98
2018-12-17T03:27:13.621Z,1011.97
2018-12-17T03:28:13.611Z,1012.00
2018-12-17T03:29:13.598Z,1011.96
2018-12-17T03:30:13.600Z,1011.97
2018-12-17T03:31:13.588Z,1012.01
2018-12-17T03:32:13.573Z,1011.96
2018-12-17T03:33:13.562Z,1012.02
2018-12-17T03:34:13.552Z,1012.00
2018-12-17T03:35:13.537Z,1012.01
2018-12-17T03:36:13.556Z,1011.96
2018-12-17T03:37:13.522Z,1012.06
2018-12-17T03:38:13.517Z,1012.03
2018-12-17T03:39:13.496Z,1012.02
2018-12-17T03:40:13.496Z,1012.04
2018-12-17T03:41:13.510Z,1011.96
2018-12-17T03:42:13.464Z,1011.97
2018-12-17T03:43:13.452Z,1011.94
2018-12-17T03:44:13.445Z,1011.98
2018-12-17T03:45:13.434Z,1011.97
2018-12-17T03:46:13.422Z,1011.96
2018-12-17T03:47:13.432Z,1012.02
2018-12-17T03:48:13.407Z,1012.00
2018-12-17T03:49:13.389Z,1011.95
2018-12-17T03:50:13.388Z,1011.99
2018-12-17T03:51:13.376Z,1011.97
2018-12-17T03:52:13.371Z,1012.01
2018-12-17T03:53:13.349Z,1012.00
2018-12-17T03:54:13.347Z,1011.97
2018-12-17T03:55:13.331Z,1012.02
2018-12-17T03:56:13.320Z,1012.01
2018-12-17T03:57:13.322Z,1012.04
2018-12-17T03:58:13.303Z,1012.07
2018-12-17T03:59:13.286Z,1012.10
2018-12-17T04:00:13.279Z,1012.09
2018-12-17T04:01:13.268Z,1012.10
2018-12-17T04:02:13.273Z,1012.10
2018-12-17T04:03:13.245Z,1012.08
2018-12-17T04:04:13.236Z,1012.13
2018-12-17T04:05:13.225Z,1012.13
2018-12-17T04:06:13.220Z,1012.16
2018-12-17T04:07:13.220Z,1012.15
2018-12-17T04:08:13.199Z,1012.18
2018-12-17T04:09:13.186Z,1012.15
2018-12-17T04:10:13.181Z,1012.17
2018-12-17T04:11:13.175Z,1012.19
2018-12-17T04:12:13.197Z,1012.19
2018-12-17T04:13:13.139Z,1012.21
2018-12-17T04:14:13.131Z,1012.18
2018-12-17T04:15:13.123Z,1012.16
2018-12-17T04:16:13.111Z,1012.19
2018-12-17T04:17:13.124Z,1012.16
2018-12-17T04:18:13.089Z,1012.21
2018-12-17T04:19:13.078Z,1012.23
2018-12-17T04:20:13.071Z,1012.21
2018-12-17T04:21:13.057Z,1012.25
2018-12-17T04:22:13.072Z,1012.29
2018-12-17T04:23:13.036Z,1012.22
2018-12-17T04:24:13.025Z,1012.28
2018-12-17T04:25:13.013Z,1012.28
2018-12-17T04:26:13.002Z,1012.27
2018-12-17T04:27:13.017Z,1012.28
2018-12-17T04:28:12.983Z,1012.31
2018-12-17T04:29:12.983Z,1012.29
2018-12-17T04:30:12.960Z,1012.29
2018-12-17T04:31:12.956Z,1012.30
2018-12-17T04:32:12.959Z,1012.31
2018-12-17T04:33:12.931Z,1012.34
2018-12-17T04:34:12.928Z,1012.30
2018-12-17T04:35:12.910Z,1012.31
2018-12-17T04:36:12.898Z,1012.33
2018-12-17T04:37:12.899Z,1012.34
2018-12-17T04:38:12.880Z,1012.35
2018-12-17T04:39:12.873Z,1012.37
2018-12-17T04:40:12.858Z,1012.36
2018-12-17T04:41:12.846Z,1012.38
2018-12-17T04:42:12.854Z,1012.39
2018-12-17T04:43:12.828Z,1012.40
2018-12-17T04:44:12.818Z,1012.44
2018-12-17T04:45:12.805Z,1012.43
2018-12-17T04:46:12.795Z,1012.45
2018-12-17T04:47:12.798Z,1012.44
2018-12-17T04:48:12.789Z,1012.50
2018-12-17T04:49:12.768Z,1012.46
2018-12-17T04:50:12.754Z,1012.48
2018-12-17T04:51:12.751Z,1012.47
2018-12-17T04:52:12.747Z,1012.53
2018-12-17T04:53:12.726Z,1012.49
2018-12-17T04:54:12.714Z,1012.48
2018-12-17T04:55:12.707Z,1012.50
2018-12-17T04:56:12.692Z,1012.46
2018-12-17T04:57:12.694Z,1012.44
2018-12-17T04:58:12.671Z,1012.47
2018-12-17T04:59:14.723Z,1012.42
2018-12-17T05:00:12.691Z,1012.48
2018-12-17T05:01:12.640Z,1012.49
2018-12-17T05:02:12.641Z,1012.54
2018-12-17T05:03:12.633Z,1012.55
2018-12-17T05:04:12.608Z,1012.58
2018-12-17T05:05:12.610Z,1012.57
2018-12-17T05:06:12.590Z,1012.60
2018-12-17T05:07:12.594Z,1012.61
2018-12-17T05:08:12.572Z,1012.66
2018-12-17T05:09:12.557Z,1012.66
2018-12-17T05:10:12.545Z,1012.66
2018-12-17T05:11:12.535Z,1012.71
2018-12-17T05:12:12.568Z,1012.72
2018-12-17T05:13:12.513Z,1012.74
2018-12-17T05:14:12.504Z,1012.72
2018-12-17T05:15:12.498Z,1012.71
2018-12-17T05:16:12.483Z,1012.77
2018-12-17T05:17:12.473Z,1012.72
2018-12-17T05:18:12.471Z,1012.74
2018-12-17T05:19:12.458Z,1012.71
2018-12-17T05:20:12.442Z,1012.75
2018-12-17T05:21:12.431Z,1012.76
2018-12-17T05:22:12.420Z,1012.74
2018-12-17T05:23:12.431Z,1012.78
2018-12-17T05:24:12.401Z,1012.76
2018-12-17T05:25:12.394Z,1012.76
2018-12-17T05:26:12.386Z,1012.79
2018-12-17T05:27:12.368Z,1012.75
2018-12-17T05:28:12.373Z,1012.80
2018-12-17T05:29:12.349Z,1012.81
2018-12-17T05:30:12.343Z,1012.82
2018-12-17T05:31:12.331Z,1012.78
2018-12-17T05:32:12.320Z,1012.77
2018-12-17T05:33:12.322Z,1012.79
2018-12-17T05:34:12.294Z,1012.80
2018-12-17T05:35:12.291Z,1012.82
2018-12-17T05:36:12.278Z,1012.78
2018-12-17T05:37:12.271Z,1012.83
2018-12-17T05:38:12.323Z,1012.81
2018-12-17T05:39:12.244Z,1012.83
2018-12-17T05:40:12.233Z,1012.87
2018-12-17T05:41:12.223Z,1012.85
2018-12-17T05:42:12.222Z,1012.84
2018-12-17T05:43:12.212Z,1012.91
2018-12-17T05:44:12.191Z,1012.93
2018-12-17T05:45:12.185Z,1012.92
2018-12-17T05:46:12.171Z,1012.97
2018-12-17T05:47:12.160Z,1012.96
2018-12-17T05:48:12.168Z,1012.94
2018-12-17T05:49:12.147Z,1013.00
2018-12-17T05:50:12.130Z,1013.01
2018-12-17T05:51:12.119Z,1013.02
2018-12-17T05:52:12.112Z,1013.02
2018-12-17T05:53:12.111Z,1013.07
2018-12-17T05:54:12.087Z,1013.04
2018-12-17T05:55:12.077Z,1013.09
2018-12-17T05:56:12.065Z,1013.11
2018-12-17T05:57:12.058Z,1013.14
2018-12-17T05:58:12.061Z,1013.17
2018-12-17T05:59:12.037Z,1013.14
2018-12-17T06:00:12.025Z,1013.22
2018-12-17T06:01:12.014Z,1013.18
2018-12-17T06:02:12.004Z,1013.25
2018-12-17T06:03:12.005Z,1013.30
2018-12-17T06:04:11.984Z,1013.29
2018-12-17T06:05:11.973Z,1013.35
2018-12-17T06:06:11.962Z,1013.35
2018-12-17T06:07:11.952Z,1013.40
2018-12-17T06:08:11.955Z,1013.33
2018-12-17T06:09:11.932Z,1013.33
2018-12-17T06:10:11.926Z,1013.36
2018-12-17T06:11:11.912Z,1013.40
2018-12-17T06:12:11.903Z,1013.43
2018-12-17T06:13:11.899Z,1013.40
2018-12-17T06:14:11.882Z,1013.41
2018-12-17T06:15:11.868Z,1013.42
2018-12-17T06:16:11.860Z,1013.38
2018-12-17T06:17:11.847Z,1013.41
2018-12-17T06:18:11.853Z,1013.42
2018-12-17T06:19:11.832Z,1013.44
2018-12-17T06:20:11.821Z,1013.42
2018-12-17T06:21:11.808Z,1013.41
2018-12-17T06:22:11.795Z,1013.39
2018-12-17T06:23:11.801Z,1013.48
2018-12-17T06:24:11.788Z,1013.52
2018-12-17T06:25:11.778Z,1013.55
2018-12-17T06:26:11.763Z,1013.60
2018-12-17T06:27:11.744Z,1013.60
2018-12-17T06:28:11.746Z,1013.58
2018-12-17T06:29:11.725Z,1013.58
2018-12-17T06:30:11.711Z,1013.63
2018-12-17T06:31:11.702Z,1013.59
2018-12-17T06:32:11.692Z,1013.62
2018-12-17T06:33:15.615Z,1013.61
2018-12-17T06:34:11.709Z,1013.63
2018-12-17T06:35:11.660Z,1013.69
2018-12-17T06:36:11.651Z,1013.65
2018-12-17T06:37:11.640Z,1013.66
2018-12-17T06:38:11.643Z,1013.69
2018-12-17T06:39:11.623Z,1013.65
2018-12-17T06:40:11.618Z,1013.66
2018-12-17T06:41:11.596Z,1013.66
2018-12-17T06:42:11.588Z,1013.72
2018-12-17T06:43:11.610Z,1013.69
2018-12-17T06:44:11.564Z,1013.66
2018-12-17T06:45:11.559Z,1013.68
2018-12-17T06:46:11.547Z,1013.73
2018-12-17T06:47:11.537Z,1013.73
2018-12-17T06:48:17.056Z,1013.72
2018-12-17T06:49:12.551Z,1013.71
2018-12-17T06:50:11.503Z,1013.73
2018-12-17T06:51:11.497Z,1013.72
2018-12-17T06:52:11.485Z,1013.77
2018-12-17T06:53:11.474Z,1013.76
2018-12-17T06:54:11.476Z,1013.79
2018-12-17T06:55:11.452Z,1013.75
2018-12-17T06:56:11.441Z,1013.73
2018-12-17T06:57:11.429Z,1013.77
2018-12-17T06:58:11.420Z,1013.82
2018-12-17T06:59:11.423Z,1013.81
2018-12-17T07:00:11.398Z,1013.89
2018-12-17T07:01:11.387Z,1013.92
2018-12-17T07:02:11.376Z,1013.94
2018-12-17T07:03:11.371Z,1013.93
2018-12-17T07:04:11.372Z,1013.93
2018-12-17T07:05:11.347Z,1014.01
2018-12-17T07:06:11.335Z,1013.98
2018-12-17T07:07:11.326Z,1013.99
2018-12-17T07:08:11.317Z,1014.03
2018-12-17T07:09:11.317Z,1014.07
2018-12-17T07:10:11.295Z,1014.09
2018-12-17T07:11:11.293Z,1014.15
2018-12-17T07:12:11.278Z,1014.14
2018-12-17T07:13:11.263Z,1014.23
2018-12-17T07:14:11.265Z,1014.29
2018-12-17T07:15:11.246Z,1014.30
2018-12-17T07:16:11.232Z,1014.31
2018-12-17T07:17:11.222Z,1014.28
2018-12-17T07:18:11.224Z,1014.22
2018-12-17T07:19:11.663Z,1014.23
2018-12-17T07:20:11.193Z,1014.22
2018-12-17T07:21:11.180Z,1014.25
2018-12-17T07:22:11.170Z,1014.23
2018-12-17T07:23:11.159Z,1014.25
2018-12-17T07:24:11.158Z,1014.25
2018-12-17T07:25:11.140Z,1014.30
2018-12-17T07:26:11.126Z,1014.25
2018-12-17T07:27:11.116Z,1014.25
2018-12-17T07:28:11.105Z,1014.30
2018-12-17T07:29:11.108Z,1014.33
2018-12-17T07:30:11.086Z,1014.30
2018-12-17T07:31:11.075Z,1014.33
2018-12-17T07:32:11.066Z,1014.29
2018-12-17T07:33:11.058Z,1014.34
2018-12-17T07:34:11.081Z,1014.35
2018-12-17T07:35:11.037Z,1014.34
2018-12-17T07:36:11.022Z,1014.39
2018-12-17T07:37:11.010Z,1014.37
2018-12-17T07:38:10.998Z,1014.39
2018-12-17T07:39:11.007Z,1014.43
2018-12-17T07:40:10.983Z,1014.45
2018-12-17T07:41:10.970Z,1014.46
2018-12-17T07:42:10.961Z,1014.48
2018-12-17T07:43:10.949Z,1014.50
2018-12-17T07:44:10.995Z,1014.50
2018-12-17T07:45:11.059Z,1014.52
2018-12-17T07:46:10.929Z,1014.53
2018-12-17T07:47:10.930Z,1014.53
2018-12-17T07:48:10.895Z,1014.53
2018-12-17T07:49:10.897Z,1014.52
2018-12-17T07:50:10.921Z,1014.52
2018-12-17T07:51:10.865Z,1014.50
2018-12-17T07:52:10.857Z,1014.52
2018-12-17T07:53:10.845Z,1014.51
2018-12-17T07:54:10.844Z,1014.55
2018-12-17T07:55:10.824Z,1014.48
2018-12-17T07:56:10.812Z,1014.48
2018-12-17T07:57:10.800Z,1014.45
2018-12-17T07:58:10.790Z,1014.54
2018-12-17T07:59:10.791Z,1014.49
2018-12-17T08:00:10.769Z,1014.54
2018-12-17T08:01:10.767Z,1014.55
2018-12-17T08:02:10.748Z,1014.59
2018-12-17T08:03:10.821Z,1014.60
2018-12-17T08:04:10.743Z,1014.57
2018-12-17T08:05:10.714Z,1014.65
2018-12-17T08:06:10.704Z,1014.65
2018-12-17T08:07:10.695Z,1014.69
2018-12-17T08:08:10.692Z,1014.67
2018-12-17T08:09:10.687Z,1014.74
2018-12-17T08:10:10.666Z,1014.74
2018-12-17T08:11:10.653Z,1014.69
2018-12-17T08:12:10.641Z,1014.76
2018-12-17T08:13:10.635Z,1014.79
2018-12-17T08:14:10.934Z,1014.75
2018-12-17T08:15:10.624Z,1014.79
2018-12-17T08:16:10.598Z,1014.77
2018-12-17T08:17:10.613Z,1014.78
2018-12-17T08:18:10.579Z,1014.77
2018-12-17T08:19:10.570Z,1014.77
2018-12-17T08:20:10.571Z,1014.77
2018-12-17T08:21:10.559Z,1014.79
2018-12-17T08:22:10.548Z,1014.79
2018-12-17T08:23:10.523Z,1014.78
2018-12-17T08:24:10.531Z,1014.82
2018-12-17T08:25:10.540Z,1014.81
2018-12-17T08:26:10.494Z,1014.83
2018-12-17T08:27:10.505Z,1014.86
2018-12-17T08:28:10.472Z,1014.85
2018-12-17T08:29:10.462Z,1014.85
2018-12-17T08:30:10.469Z,1014.89
2018-12-17T08:31:10.441Z,1014.87
2018-12-17T08:32:10.442Z,1014.88
2018-12-17T08:33:10.422Z,1014.89
2018-12-17T08:34:10.414Z,1014.92
2018-12-17T08:35:10.410Z,1014.93
2018-12-17T08:36:10.387Z,1015.00
2018-12-17T08:37:10.386Z,1015.01
2018-12-17T08:38:10.367Z,1015.03
2018-12-17T08:39:10.364Z,1015.01
2018-12-17T08:40:10.369Z,1015.03
2018-12-17T08:41:10.335Z,1014.97
2018-12-17T08:42:10.323Z,1014.96
2018-12-17T08:43:10.319Z,1014.98
2018-12-17T08:44:10.310Z,1014.92
2018-12-17T08:45:10.304Z,1014.94
2018-12-17T08:46:10.284Z,1015.00
2018-12-17T08:47:10.280Z,1014.99
2018-12-17T08:48:10.261Z,1015.01
2018-12-17T08:49:10.250Z,1015.07
2018-12-17T08:50:10.264Z,1015.07
2018-12-17T08:51:10.229Z,1015.07
2018-12-17T08:52:10.222Z,1015.07
2018-12-17T08:53:10.214Z,1015.09
2018-12-17T08:54:10.199Z,1015.05
2018-12-17T08:55:10.255Z,1015.06
2018-12-17T08:56:10.177Z,1015.08
2018-12-17T08:57:10.165Z,1015.06
2018-12-17T08:58:10.158Z,1015.09
2018-12-17T08:59:10.174Z,1015.12
2018-12-17T09:00:11.181Z,1015.15
2018-12-17T09:01:10.128Z,1015.14
2018-12-17T09:02:10.113Z,1015.13
2018-12-17T09:03:10.107Z,1015.10
2018-12-17T09:04:10.100Z,1015.15
2018-12-17T09:05:10.107Z,1015.16
2018-12-17T09:06:10.072Z,1015.17
2018-12-17T09:07:10.064Z,1015.13
2018-12-17T09:08:10.051Z,1015.19
2018-12-17T09:09:10.039Z,1015.20
2018-12-17T09:10:10.043Z,1015.18
2018-12-17T09:11:10.017Z,1015.19
2018-12-17T09:12:10.010Z,1015.19
2018-12-17T09:13:09.999Z,1015.22
2018-12-17T09:14:10.048Z,1015.26
2018-12-17T09:15:09.988Z,1015.30
2018-12-17T09:16:09.967Z,1015.30
2018-12-17T09:17:09.956Z,1015.38
2018-12-17T09:18:09.947Z,1015.40
2018-12-17T09:19:09.938Z,1015.31
2018-12-17T09:20:09.943Z,1015.29
2018-12-17T09:21:09.919Z,1015.35
2018-12-17T09:22:09.910Z,1015.34
2018-12-17T09:23:09.905Z,1015.43
2018-12-17T09:24:09.881Z,1015.43
2018-12-17T09:25:09.887Z,1015.41
2018-12-17T09:26:09.863Z,1015.41
2018-12-17T09:27:09.851Z,1015.36
2018-12-17T09:28:09.840Z,1015.42
2018-12-17T09:29:09.848Z,1015.44
2018-12-17T09:30:09.841Z,1015.51
2018-12-17T09:31:09.811Z,1015.43
2018-12-17T09:32:09.809Z,1015.47
2018-12-17T09:33:09.791Z,1015.51
2018-12-17T09:34:09.779Z,1015.45
2018-12-17T09:35:09.785Z,1015.44
2018-12-17T09:36:09.757Z,1015.40
2018-12-17T09:37:09.746Z,1015.49
2018-12-17T09:38:09.734Z,1015.49
2018-12-17T09:39:09.726Z,1015.42
2018-12-17T09:40:09.733Z,1015.42
2018-12-17T09:41:09.700Z,1015.45
2018-12-17T09:42:09.698Z,1015.43
2018-12-17T09:43:09.684Z,1015.45
2018-12-17T09:44:09.670Z,1015.49
2018-12-17T09:45:09.677Z,1015.52
2018-12-17T09:46:09.650Z,1015.52
2018-12-17T09:47:09.641Z,1015.49
2018-12-17T09:48:09.628Z,1015.57
2018-12-17T09:49:09.630Z,1015.53
2018-12-17T09:50:09.612Z,1015.51
2018-12-17T09:51:09.607Z,1015.47
2018-12-17T09:52:09.590Z,1015.50
2018-12-17T09:53:09.577Z,1015.48
2018-12-17T09:54:09.566Z,1015.50
2018-12-17T09:55:09.555Z,1015.52
2018-12-17T09:56:09.561Z,1015.56
2018-12-17T09:57:09.534Z,1015.50
2018-12-17T09:58:09.525Z,1015.53
2018-12-17T09:59:09.515Z,1015.54
2018-12-17T10:00:09.505Z,1015.51
2018-12-17T10:01:09.516Z,1015.51
2018-12-17T10:02:09.486Z,1015.56
2018-12-17T10:03:09.540Z,1015.56
2018-12-17T10:04:09.464Z,1015.52
2018-12-17T10:05:09.449Z,1015.51
2018-12-17T10:06:09.457Z,1015.45
2018-12-17T10:07:09.430Z,1015.50
2018-12-17T10:08:09.418Z,1015.49
2018-12-17T10:09:09.407Z,1015.48
2018-12-17T10:10:09.399Z,1015.50
2018-12-17T10:11:09.413Z,1015.51
2018-12-17T10:12:09.378Z,1015.51
2018-12-17T10:13:10.106Z,1015.46
2018-12-17T10:14:09.361Z,1015.42
2018-12-17T10:15:09.349Z,1015.44
2018-12-17T10:16:09.350Z,1015.43
2018-12-17T10:17:09.327Z,1015.41
2018-12-17T10:18:09.315Z,1015.46
2018-12-17T10:19:09.313Z,1015.43
2018-12-17T10:20:09.292Z,1015.43
2018-12-17T10:21:09.292Z,1015.45
2018-12-17T10:22:09.274Z,1015.44
2018-12-17T10:23:09.265Z,1015.44
2018-12-17T10:24:09.260Z,1015.49
2018-12-17T10:25:09.244Z,1015.49
2018-12-17T10:26:09.241Z,1015.46
2018-12-17T10:27:09.220Z,1015.44
2018-12-17T10:28:09.234Z,1015.45
2018-12-17T10:29:09.200Z,1015.49
2018-12-17T10:30:09.211Z,1015.43
2018-12-17T10:31:09.185Z,1015.46
2018-12-17T10:32:09.166Z,1015.47
2018-12-17T10:33:09.160Z,1015.47
2018-12-17T10:34:09.151Z,1015.46
2018-12-17T10:35:09.135Z,1015.49
2018-12-17T10:36:09.136Z,1015.44
2018-12-17T10:37:09.126Z,1015.48
2018-12-17T10:38:09.101Z,1015.49
2018-12-17T10:39:09.091Z,1015.54
2018-12-17T10:40:09.085Z,1015.59
2018-12-17T10:41:09.101Z,1015.64
2018-12-17T10:42:09.061Z,1015.64
2018-12-17T10:43:09.062Z,1015.60
2018-12-17T10:44:09.041Z,1015.56
2018-12-17T10:45:09.033Z,1015.60
2018-12-17T10:46:09.056Z,1015.60
2018-12-17T10:47:09.008Z,1015.61
2018-12-17T10:48:08.999Z,1015.65
2018-12-17T10:49:08.990Z,1015.65
2018-12-17T10:50:08.976Z,1015.66
2018-12-17T10:51:08.966Z,1015.65
2018-12-17T10:52:08.981Z,1015.67
2018-12-17T10:53:08.944Z,1015.66
2018-12-17T10:54:08.940Z,1015.67
2018-12-17T10:55:09.520Z,1015.66
2018-12-17T10:56:09.947Z,1015.65
2018-12-17T10:57:08.912Z,1015.66
2018-12-17T10:58:08.893Z,1015.68
2018-12-17T10:59:08.881Z,1015.68
2018-12-17T11:00:08.875Z,1015.70
2018-12-17T11:01:08.860Z,1015.67
2018-12-17T11:02:08.863Z,1015.65
2018-12-17T11:03:08.839Z,1015.64
2018-12-17T11:04:08.840Z,1015.64
2018-12-17T11:05:08.836Z,1015.63
2018-12-17T11:06:09.609Z,1015.63
2018-12-17T11:07:08.810Z,1015.69
2018-12-17T11:08:08.787Z,1015.68
2018-12-17T11:09:08.778Z,1015.64
2018-12-17T11:10:08.816Z,1015.63
2018-12-17T11:11:08.755Z,1015.62
2018-12-17T11:12:08.759Z,1015.62
2018-12-17T11:13:08.752Z,1015.66
2018-12-17T11:14:08.725Z,1015.61
2018-12-17T11:15:08.712Z,1015.61
2018-12-17T11:16:08.702Z,1015.64
2018-12-17T11:17:08.700Z,1015.57
2018-12-17T11:18:08.687Z,1015.55
2018-12-17T11:19:08.680Z,1015.55
2018-12-17T11:20:08.657Z,1015.53
2018-12-17T11:21:08.691Z,1015.58
2018-12-17T11:22:08.679Z,1015.50
2018-12-17T11:23:08.641Z,1015.53
2018-12-17T11:24:08.643Z,1015.48
2018-12-17T11:25:09.618Z,1015.55
2018-12-17T11:26:08.622Z,1015.50
2018-12-17T11:27:08.633Z,1015.57
2018-12-17T11:28:08.586Z,1015.53
2018-12-17T11:29:08.574Z,1015.53
2018-12-17T11:30:08.644Z,1015.52
2018-12-17T11:31:08.556Z,1015.54
2018-12-17T11:32:11.588Z,1015.55
2018-12-17T11:33:08.542Z,1015.53
2018-12-17T11:34:08.523Z,1015.50
2018-12-17T11:35:08.519Z,1015.49
2018-12-17T11:36:08.543Z,1015.44
2018-12-17T11:37:08.496Z,1015.44
2018-12-17T11:38:08.480Z,1015.47
2018-12-17T11:39:08.460Z,1015.47
2018-12-17T11:40:08.449Z,1015.50
2018-12-17T11:41:08.437Z,1015.44
2018-12-17T11:42:08.426Z,1015.43
2018-12-17T11:43:08.427Z,1015.48
2018-12-17T11:44:08.405Z,1015.43
2018-12-17T11:45:08.395Z,1015.45
2018-12-17T11:46:08.387Z,1015.38
2018-12-17T11:47:08.374Z,1015.41
2018-12-17T11:48:08.397Z,1015.40
2018-12-17T11:49:08.360Z,1015.43
2018-12-17T11:50:08.341Z,1015.36
2018-12-17T11:51:08.332Z,1015.35
2018-12-17T11:52:08.328Z,1015.40
2018-12-17T11:53:08.332Z,1015.42
2018-12-17T11:54:08.305Z,1015.42
2018-12-17T11:55:08.290Z,1015.36
2018-12-17T11:56:08.280Z,1015.37
2018-12-17T11:57:08.270Z,1015.41
2018-12-17T11:58:08.276Z,1015.44
2018-12-17T11:59:08.246Z,1015.44
2018-12-17T12:00:08.239Z,1015.42
2018-12-17T12:01:08.232Z,1015.44
2018-12-17T12:02:08.221Z,1015.45
2018-12-17T12:03:08.219Z,1015.45
2018-12-17T12:04:08.196Z,1015.46
2018-12-17T12:05:08.185Z,1015.50